createdAt,value
2023-04-25T00:00:54.156Z,101025.09
2023-04-25T00:05:57.822Z,101037.69
2023-04-25T00:11:00.551Z,101032.28
2023-04-25T00:16:03.238Z,101044.13
2023-04-25T00:21:07.218Z,101045.13
2023-04-25T00:26:08.826Z,101051.69
2023-04-25T00:31:10.749Z,101063.59
2023-04-25T00:36:12.389Z,101052.28
2023-04-25T00:41:14.309Z,101061.56
2023-04-25T00:46:16.038Z,101059.13
2023-04-25T00:51:22.093Z,101055.84
2023-04-25T00:56:23.650Z,101052.69
2023-04-25T01:01:25.889Z,101058.78
2023-04-25T01:06:28.361Z,101069.84
2023-04-25T01:11:29.877Z,101055.97
2023-04-25T01:16:32.035Z,101065.09
2023-04-25T01:21:33.627Z,101060.53
2023-04-25T01:26:36.273Z,101071.97
2023-04-25T01:31:38.929Z,101070.53
2023-04-25T01:36:41.000Z,101065.56
2023-04-25T01:41:42.539Z,101068.84
2023-04-25T01:46:44.411Z,101077.34
2023-04-25T01:51:45.916Z,101077.50
2023-04-25T01:56:52.077Z,101088.47
2023-04-25T02:01:53.711Z,101092.78
2023-04-25T02:06:55.423Z,101093.22
2023-04-25T02:11:56.950Z,101097.91
2023-04-25T02:16:59.405Z,101096.34
2023-04-25T02:22:01.301Z,101094.75
2023-04-25T02:27:02.967Z,101103.28
2023-04-25T02:32:04.793Z,101108.31
2023-04-25T02:37:06.271Z,101108.19
2023-04-25T02:42:07.800Z,101117.00
2023-04-25T02:47:09.387Z,101117.16
2023-04-25T02:52:10.972Z,101113.84
2023-04-25T02:57:12.458Z,101107.38
2023-04-25T03:02:13.979Z,101114.50
2023-04-25T03:07:15.516Z,101116.19
2023-04-25T03:12:17.232Z,101130.75
2023-04-25T03:17:18.760Z,101128.03
2023-04-25T03:22:20.319Z,101132.59
2023-04-25T03:27:21.844Z,101135.56
2023-04-25T03:32:24.538Z,101133.25
2023-04-25T03:37:26.084Z,101130.28
2023-04-25T03:42:27.606Z,101137.72
2023-04-25T03:47:29.244Z,101151.31
2023-04-25T03:52:30.919Z,101151.44
2023-04-25T03:57:32.408Z,101149.25
2023-04-25T04:02:35.945Z,101162.19
2023-04-25T04:07:40.890Z,101161.28
2023-04-25T04:12:42.364Z,101158.84
2023-04-25T04:17:43.967Z,101163.25
2023-04-25T04:22:45.516Z,101172.97
2023-04-25T04:27:47.158Z,101174.81
2023-04-25T04:32:50.684Z,101181.00
2023-04-25T04:37:52.340Z,101183.25
2023-04-25T04:42:54.310Z,101186.88
2023-04-25T04:47:56.374Z,101200.44
2023-04-25T04:52:57.983Z,101206.59
2023-04-25T04:57:59.515Z,101212.47
2023-04-25T05:03:01.756Z,101213.81
2023-04-25T05:08:03.480Z,101217.97
2023-04-25T05:13:05.001Z,101216.59
2023-04-25T05:18:06.509Z,101220.53
2023-04-25T05:23:08.035Z,101232.78
2023-04-25T05:28:09.489Z,101237.19
2023-04-25T05:33:11.129Z,101242.94
2023-04-25T05:38:12.640Z,101248.69
2023-04-25T05:43:14.186Z,101255.53
2023-04-25T05:48:15.752Z,101264.78
2023-04-25T05:53:17.382Z,101264.59
2023-04-25T05:58:18.917Z,101263.06
2023-04-25T06:03:21.507Z,101276.81
2023-04-25T06:08:23.162Z,101287.13
2023-04-25T06:13:24.718Z,101287.69
2023-04-25T06:18:26.270Z,101299.47
2023-04-25T06:23:27.745Z,101299.19
2023-04-25T06:28:29.291Z,101302.44
2023-04-25T06:33:30.823Z,101302.19
2023-04-25T06:38:32.369Z,101315.94
2023-04-25T06:43:34.625Z,101305.72
2023-04-25T06:48:36.165Z,101316.38
2023-04-25T06:53:37.694Z,101323.75
2023-04-25T06:58:39.313Z,101331.81
2023-04-25T07:03:40.958Z,101334.50
2023-04-25T07:08:42.712Z,101333.88
2023-04-25T07:13:45.067Z,101336.31
2023-04-25T07:18:46.570Z,101345.25
2023-04-25T07:23:48.135Z,101338.06
2023-04-25T07:28:51.970Z,101347.59
2023-04-25T07:33:53.788Z,101346.72
2023-04-25T07:38:55.345Z,101350.66
2023-04-25T07:43:56.896Z,101353.78
2023-04-25T07:48:58.379Z,101345.66
2023-04-25T07:54:00.659Z,101359.41
2023-04-25T07:59:02.299Z,101367.41
2023-04-25T08:04:04.072Z,101374.59
2023-04-25T08:09:05.943Z,101380.88
2023-04-25T08:14:07.506Z,101404.72
2023-04-25T08:19:09.272Z,101427.13
2023-04-25T08:24:10.875Z,101434.16
2023-04-25T08:29:12.341Z,101425.94
2023-04-25T08:34:13.815Z,101426.19
2023-04-25T08:39:15.442Z,101428.81
2023-04-25T08:44:17.585Z,101443.91
2023-04-25T08:49:20.011Z,101450.53
2023-04-25T08:59:34.792Z,101469.69
2023-04-25T09:04:37.312Z,101483.50
2023-04-25T09:09:38.806Z,101481.19
2023-04-25T09:14:40.498Z,101473.34
2023-04-25T09:19:42.606Z,101483.22
2023-04-25T09:24:46.966Z,101499.13
2023-04-25T09:29:48.665Z,101488.22
2023-04-25T09:34:51.877Z,101487.97
2023-04-25T09:40:01.448Z,101496.78
2023-04-25T09:45:04.790Z,101500.63
2023-04-25T09:50:15.244Z,101518.81
2023-04-25T09:55:16.952Z,101506.91
2023-04-25T10:00:19.207Z,101522.97
2023-04-25T10:05:21.136Z,101531.94
2023-04-25T10:10:26.795Z,101543.41
2023-04-25T10:15:29.159Z,101545.41
2023-04-25T10:20:31.518Z,101546.03
2023-04-25T10:25:33.164Z,101546.16
2023-04-25T10:30:34.897Z,101549.16
2023-04-25T10:35:36.712Z,101550.94
2023-04-25T10:40:38.289Z,101555.13
2023-04-25T10:45:53.239Z,101564.63
2023-04-25T10:51:21.078Z,101572.44
2023-04-25T10:56:25.925Z,101557.44
2023-04-25T11:01:27.436Z,101572.88
2023-04-25T11:06:55.852Z,101571.97
2023-04-25T11:12:03.286Z,101574.50
2023-04-25T11:17:04.909Z,101582.34
2023-04-25T11:27:32.310Z,101590.59
2023-04-25T11:32:34.794Z,101613.75
2023-04-25T11:37:37.199Z,101600.56
2023-04-25T11:42:46.716Z,101604.75
2023-04-25T11:47:48.492Z,101595.84
2023-04-25T11:52:51.204Z,101598.31
2023-04-25T11:57:53.032Z,101593.00
2023-04-25T12:02:57.086Z,101601.59
2023-04-25T12:07:58.780Z,101605.03
2023-04-25T12:13:00.293Z,101604.06
2023-04-25T12:18:03.457Z,101609.53
2023-04-25T12:23:08.887Z,101611.19
2023-04-25T12:28:20.550Z,101614.31
2023-04-25T12:33:23.287Z,101612.59
2023-04-25T12:38:26.554Z,101614.56
2023-04-25T12:43:28.223Z,101619.25
2023-04-25T12:48:29.750Z,101626.59
2023-04-25T12:53:32.262Z,101636.22
2023-04-25T12:58:34.749Z,101643.25
2023-04-25T13:03:36.397Z,101639.94
2023-04-25T13:08:39.176Z,101637.22
2023-04-25T13:13:41.136Z,101642.94
2023-04-25T13:18:42.920Z,101651.53
2023-04-25T13:23:45.603Z,101652.31
2023-04-25T13:28:47.126Z,101662.84
2023-04-25T13:33:48.765Z,101662.31
2023-04-25T13:38:50.483Z,101672.78
2023-04-25T13:43:52.490Z,101669.31
2023-04-25T13:48:59.745Z,101671.03
2023-04-25T13:54:04.586Z,101668.91
2023-04-25T13:59:06.096Z,101699.06
2023-04-25T14:04:07.706Z,101723.72
2023-04-25T14:09:11.101Z,101737.00
2023-04-25T14:14:13.164Z,101714.41
2023-04-25T14:19:15.395Z,101719.84
2023-04-25T14:24:16.923Z,101716.09
2023-04-25T14:29:18.479Z,101711.91
2023-04-25T14:34:19.947Z,101709.25
2023-04-25T14:39:21.885Z,101707.13
2023-04-25T14:44:23.470Z,101709.13
2023-04-25T14:49:24.996Z,101699.53
2023-04-25T14:54:26.648Z,101704.19
2023-04-25T14:59:29.165Z,101710.47
2023-04-25T15:04:30.906Z,101710.63
2023-04-25T15:09:32.985Z,101718.13
2023-04-25T15:14:34.952Z,101709.50
2023-04-25T15:19:36.473Z,101701.09
2023-04-25T15:24:38.052Z,101704.59
2023-04-25T15:29:39.693Z,101709.59
2023-04-25T15:34:41.282Z,101712.88
2023-04-25T15:39:42.781Z,101719.97
2023-04-25T15:44:44.322Z,101726.22
2023-04-25T15:49:47.066Z,101715.78
2023-04-25T15:54:49.359Z,101727.22
2023-04-25T15:59:50.850Z,101725.84
2023-04-25T16:04:52.509Z,101731.56
2023-04-25T16:09:54.033Z,101738.41
2023-04-25T16:14:56.193Z,101727.81
2023-04-25T16:19:59.189Z,101734.66
2023-04-25T16:25:00.729Z,101739.13
2023-04-25T16:30:02.776Z,101735.22
2023-04-25T16:35:04.417Z,101742.16
2023-04-25T16:40:09.803Z,101742.81
2023-04-25T16:45:13.112Z,101736.50
2023-04-25T16:50:17.516Z,101749.97
2023-04-25T16:55:19.178Z,101747.75
2023-04-25T17:00:21.772Z,101752.22
2023-04-25T17:05:24.976Z,101772.22
2023-04-25T17:10:27.118Z,101759.03
2023-04-25T17:15:28.688Z,101766.53
2023-04-25T17:20:33.086Z,101771.13
2023-04-25T17:25:34.801Z,101781.38
2023-04-25T17:30:36.386Z,101782.00
2023-04-25T17:35:38.037Z,101778.16
2023-04-25T17:40:39.531Z,101787.41
2023-04-25T17:45:41.254Z,101785.53
2023-04-25T17:50:42.819Z,101785.03
2023-04-25T17:55:44.380Z,101790.19
2023-04-25T18:00:46.454Z,101795.25
2023-04-25T18:05:47.975Z,101797.97
2023-04-25T18:10:49.611Z,101812.13
2023-04-25T18:15:51.859Z,101807.81
2023-04-25T18:20:53.501Z,101808.78
2023-04-25T18:25:55.060Z,101809.63
2023-04-25T18:30:56.862Z,101806.00
2023-04-25T18:35:59.859Z,101805.50
2023-04-25T18:41:18.246Z,101805.22
2023-04-25T18:46:23.494Z,101808.56
2023-04-25T18:51:31.656Z,101810.81
2023-04-25T18:56:33.170Z,101817.19
2023-04-25T19:01:34.781Z,101828.50
2023-04-25T19:06:36.369Z,101826.72
2023-04-25T19:11:38.177Z,101829.53
2023-04-25T19:16:39.769Z,101832.72
2023-04-25T19:21:41.785Z,101843.91
2023-04-25T19:26:43.306Z,101848.69
2023-04-25T19:31:45.474Z,101857.16
2023-04-25T19:36:47.150Z,101851.94
2023-04-25T19:41:48.659Z,101844.06
2023-04-25T19:46:50.270Z,101849.34
2023-04-25T19:51:51.840Z,101851.06
2023-04-25T19:56:53.314Z,101850.25
2023-04-25T20:01:54.833Z,101859.94
2023-04-25T20:06:56.421Z,101861.44
2023-04-25T20:11:58.006Z,101864.81
2023-04-25T20:16:59.462Z,101866.88
2023-04-25T20:22:00.918Z,101867.75
2023-04-25T20:27:03.000Z,101862.66
2023-04-25T20:32:04.935Z,101870.56
2023-04-25T20:37:08.469Z,101881.09
2023-04-25T20:42:10.090Z,101873.63
2023-04-25T20:47:11.645Z,101881.81
2023-04-25T20:52:13.334Z,101864.63
2023-04-25T20:57:14.874Z,101868.81
2023-04-25T21:02:16.478Z,101868.50
2023-04-25T21:07:18.144Z,101865.16
2023-04-25T21:12:19.614Z,101859.19
2023-04-25T21:17:21.260Z,101850.94
2023-04-25T21:22:22.884Z,101873.22
2023-04-25T21:27:24.429Z,101870.81
2023-04-25T21:32:26.670Z,101852.22
2023-04-25T21:37:28.252Z,101869.16
2023-04-25T21:42:30.032Z,101869.59
2023-04-25T21:47:32.917Z,101870.75
2023-04-25T21:52:36.318Z,101873.59
2023-04-25T21:57:37.880Z,101867.81
2023-04-25T22:02:40.229Z,101876.91
2023-04-25T22:07:42.149Z,101881.78
2023-04-25T22:12:44.609Z,101868.63
2023-04-25T22:17:47.244Z,101887.22
2023-04-25T22:22:49.463Z,101886.78
2023-04-25T22:27:51.553Z,101885.88
2023-04-25T22:32:53.161Z,101888.03
2023-04-25T22:37:54.677Z,101889.53
2023-04-25T22:42:56.353Z,101889.94
2023-04-25T22:47:58.481Z,101894.00
2023-04-25T22:53:00.514Z,101895.28
2023-04-25T22:58:02.505Z,101894.72
2023-04-25T23:03:04.387Z,101897.63
2023-04-25T23:08:06.101Z,101899.16
2023-04-25T23:13:08.075Z,101897.41
2023-04-25T23:18:09.809Z,101898.66
2023-04-25T23:23:11.680Z,101901.69
2023-04-25T23:28:13.150Z,101909.31
2023-04-25T23:33:14.646Z,101914.81
2023-04-25T23:38:17.180Z,101909.59
2023-04-25T23:43:18.751Z,101921.47
2023-04-25T23:48:20.302Z,101910.00
2023-04-25T23:53:21.933Z,101902.38
2023-04-25T23:58:23.594Z,101909.72
